sensor_id;sensor_type;location;lat;lon;timestamp;P1;durP1;ratioP1;P2;durP2;ratioP2
77146;SDS011;66121;52.584;9.694;2023-04-06T00:00:59;17.98;;;11.23;;
77146;SDS011;66121;52.584;9.694;2023-04-06T00:03:25;18.42;;;11.15;;
77146;SDS011;66121;52.584;9.694;2023-04-06T00:05:50;18.38;;;12.10;;
77146;SDS011;66121;52.584;9.694;2023-04-06T00:08:16;16.13;;;10.65;;
77146;SDS011;66121;52.584;9.694;2023-04-06T00:10:41;15.15;;;11.23;;
77146;SDS011;66121;52.584;9.694;2023-04-06T00:13:07;15.73;;;10.90;;
77146;SDS011;66121;52.584;9.694;2023-04-06T00:15:32;17.20;;;11.20;;
77146;SDS011;66121;52.584;9.694;2023-04-06T00:17:58;15.88;;;11.25;;
77146;SDS011;66121;52.584;9.694;2023-04-06T00:20:23;17.13;;;11.57;;
77146;SDS011;66121;52.584;9.694;2023-04-06T00:22:49;20.13;;;11.77;;
77146;SDS011;66121;52.584;9.694;2023-04-06T00:25:15;15.07;;;11.27;;
77146;SDS011;66121;52.584;9.694;2023-04-06T00:27:40;14.73;;;10.43;;
77146;SDS011;66121;52.584;9.694;2023-04-06T00:30:06;16.65;;;11.10;;
77146;SDS011;66121;52.584;9.694;2023-04-06T00:32:32;17.58;;;11.15;;
77146;SDS011;66121;52.584;9.694;2023-04-06T00:34:58;16.40;;;10.60;;
77146;SDS011;66121;52.584;9.694;2023-04-06T00:37:23;15.05;;;10.90;;
77146;SDS011;66121;52.584;9.694;2023-04-06T00:39:49;15.35;;;10.90;;
77146;SDS011;66121;52.584;9.694;2023-04-06T00:42:16;15.23;;;10.65;;
77146;SDS011;66121;52.584;9.694;2023-04-06T00:44:43;17.08;;;11.25;;
77146;SDS011;66121;52.584;9.694;2023-04-06T00:47:08;17.38;;;10.38;;
77146;SDS011;66121;52.584;9.694;2023-04-06T00:49:34;15.55;;;9.65;;
77146;SDS011;66121;52.584;9.694;2023-04-06T00:52:00;17.73;;;11.10;;
77146;SDS011;66121;52.584;9.694;2023-04-06T00:54:26;17.02;;;11.75;;
77146;SDS011;66121;52.584;9.694;2023-04-06T00:56:52;19.88;;;12.18;;
77146;SDS011;66121;52.584;9.694;2023-04-06T00:59:17;17.00;;;11.75;;
77146;SDS011;66121;52.584;9.694;2023-04-06T01:01:43;19.20;;;11.77;;
77146;SDS011;66121;52.584;9.694;2023-04-06T01:04:08;20.27;;;11.80;;
77146;SDS011;66121;52.584;9.694;2023-04-06T01:06:34;16.83;;;12.43;;
77146;SDS011;66121;52.584;9.694;2023-04-06T01:08:59;18.40;;;11.30;;
77146;SDS011;66121;52.584;9.694;2023-04-06T01:11:25;18.20;;;11.27;;
77146;SDS011;66121;52.584;9.694;2023-04-06T01:13:51;16.10;;;11.52;;
77146;SDS011;66121;52.584;9.694;2023-04-06T01:16:16;18.50;;;10.82;;
77146;SDS011;66121;52.584;9.694;2023-04-06T01:18:42;19.00;;;10.80;;
77146;SDS011;66121;52.584;9.694;2023-04-06T01:21:08;17.88;;;11.23;;
77146;SDS011;66121;52.584;9.694;2023-04-06T01:23:35;14.75;;;10.50;;
77146;SDS011;66121;52.584;9.694;2023-04-06T01:26:00;17.00;;;10.75;;
77146;SDS011;66121;52.584;9.694;2023-04-06T01:28:25;15.50;;;10.53;;
77146;SDS011;66121;52.584;9.694;2023-04-06T01:30:51;17.10;;;10.57;;
77146;SDS011;66121;52.584;9.694;2023-04-06T01:33:16;17.60;;;11.05;;
77146;SDS011;66121;52.584;9.694;2023-04-06T01:35:42;15.88;;;10.60;;
77146;SDS011;66121;52.584;9.694;2023-04-06T01:38:07;19.17;;;11.40;;
77146;SDS011;66121;52.584;9.694;2023-04-06T01:40:32;18.38;;;10.77;;
77146;SDS011;66121;52.584;9.694;2023-04-06T01:42:58;16.70;;;10.80;;
77146;SDS011;66121;52.584;9.694;2023-04-06T01:45:23;21.63;;;11.23;;
77146;SDS011;66121;52.584;9.694;2023-04-06T01:47:48;16.50;;;9.60;;
77146;SDS011;66121;52.584;9.694;2023-04-06T01:50:14;15.48;;;10.32;;
77146;SDS011;66121;52.584;9.694;2023-04-06T01:52:39;21.40;;;10.88;;
77146;SDS011;66121;52.584;9.694;2023-04-06T01:55:05;16.00;;;10.35;;
77146;SDS011;66121;52.584;9.694;2023-04-06T01:57:31;18.58;;;10.73;;
77146;SDS011;66121;52.584;9.694;2023-04-06T01:59:56;18.33;;;10.53;;
77146;SDS011;66121;52.584;9.694;2023-04-06T02:02:22;17.40;;;10.67;;
77146;SDS011;66121;52.584;9.694;2023-04-06T02:04:47;18.77;;;11.10;;
77146;SDS011;66121;52.584;9.694;2023-04-06T02:07:12;15.53;;;10.07;;
77146;SDS011;66121;52.584;9.694;2023-04-06T02:09:38;17.47;;;10.30;;
77146;SDS011;66121;52.584;9.694;2023-04-06T02:12:03;17.50;;;10.82;;
77146;SDS011;66121;52.584;9.694;2023-04-06T02:14:28;16.92;;;10.38;;
77146;SDS011;66121;52.584;9.694;2023-04-06T02:16:54;16.67;;;10.60;;
77146;SDS011;66121;52.584;9.694;2023-04-06T02:19:19;16.27;;;10.93;;
77146;SDS011;66121;52.584;9.694;2023-04-06T02:21:44;19.23;;;11.13;;
77146;SDS011;66121;52.584;9.694;2023-04-06T02:24:10;18.75;;;10.88;;
77146;SDS011;66121;52.584;9.694;2023-04-06T02:26:35;18.50;;;11.13;;
77146;SDS011;66121;52.584;9.694;2023-04-06T02:29:01;17.63;;;10.45;;
77146;SDS011;66121;52.584;9.694;2023-04-06T02:31:27;15.40;;;10.32;;
77146;SDS011;66121;52.584;9.694;2023-04-06T02:33:52;15.90;;;10.50;;
77146;SDS011;66121;52.584;9.694;2023-04-06T02:36:17;19.70;;;11.33;;
77146;SDS011;66121;52.584;9.694;2023-04-06T02:38:43;16.73;;;10.27;;
77146;SDS011;66121;52.584;9.694;2023-04-06T02:41:08;15.82;;;9.80;;
77146;SDS011;66121;52.584;9.694;2023-04-06T02:43:34;15.50;;;10.43;;
77146;SDS011;66121;52.584;9.694;2023-04-06T02:45:59;18.00;;;10.30;;
77146;SDS011;66121;52.584;9.694;2023-04-06T02:48:25;18.40;;;10.02;;
77146;SDS011;66121;52.584;9.694;2023-04-06T02:50:50;23.73;;;11.40;;
77146;SDS011;66121;52.584;9.694;2023-04-06T02:53:15;16.30;;;10.45;;
77146;SDS011;66121;52.584;9.694;2023-04-06T02:55:41;16.73;;;10.60;;
77146;SDS011;66121;52.584;9.694;2023-04-06T02:58:06;16.50;;;10.13;;
77146;SDS011;66121;52.584;9.694;2023-04-06T03:00:31;19.20;;;10.23;;
77146;SDS011;66121;52.584;9.694;2023-04-06T03:02:57;15.57;;;9.53;;
77146;SDS011;66121;52.584;9.694;2023-04-06T03:05:22;15.05;;;8.93;;
77146;SDS011;66121;52.584;9.694;2023-04-06T03:07:48;16.42;;;9.98;;
77146;SDS011;66121;52.584;9.694;2023-04-06T03:10:13;15.43;;;10.03;;
77146;SDS011;66121;52.584;9.694;2023-04-06T03:12:38;17.57;;;10.33;;
77146;SDS011;66121;52.584;9.694;2023-04-06T03:15:04;15.65;;;9.75;;
77146;SDS011;66121;52.584;9.694;2023-04-06T03:17:30;16.05;;;9.98;;
77146;SDS011;66121;52.584;9.694;2023-04-06T03:19:55;20.63;;;12.30;;
77146;SDS011;66121;52.584;9.694;2023-04-06T03:22:20;19.73;;;10.90;;
77146;SDS011;66121;52.584;9.694;2023-04-06T03:24:46;17.90;;;11.13;;
77146;SDS011;66121;52.584;9.694;2023-04-06T03:27:11;22.40;;;10.38;;
77146;SDS011;66121;52.584;9.694;2023-04-06T03:29:36;20.00;;;11.60;;
77146;SDS011;66121;52.584;9.694;2023-04-06T03:32:02;21.30;;;12.05;;
77146;SDS011;66121;52.584;9.694;2023-04-06T03:34:27;20.40;;;11.30;;
77146;SDS011;66121;52.584;9.694;2023-04-06T03:36:53;20.30;;;10.47;;
77146;SDS011;66121;52.584;9.694;2023-04-06T03:39:18;17.73;;;11.43;;
77146;SDS011;66121;52.584;9.694;2023-04-06T03:41:43;20.70;;;10.57;;
77146;SDS011;66121;52.584;9.694;2023-04-06T03:44:09;19.42;;;10.85;;
77146;SDS011;66121;52.584;9.694;2023-04-06T03:46:35;18.60;;;11.10;;
77146;SDS011;66121;52.584;9.694;2023-04-06T03:49:00;18.20;;;10.90;;
77146;SDS011;66121;52.584;9.694;2023-04-06T03:51:27;20.35;;;11.98;;
77146;SDS011;66121;52.584;9.694;2023-04-06T03:53:52;18.65;;;11.40;;
77146;SDS011;66121;52.584;9.694;2023-04-06T03:56:18;17.63;;;10.23;;
77146;SDS011;66121;52.584;9.694;2023-04-06T03:58:43;17.10;;;10.32;;
77146;SDS011;66121;52.584;9.694;2023-04-06T04:01:10;22.75;;;11.00;;
77146;SDS011;66121;52.584;9.694;2023-04-06T04:03:35;16.67;;;9.93;;
77146;SDS011;66121;52.584;9.694;2023-04-06T04:06:01;17.27;;;10.07;;
77146;SDS011;66121;52.584;9.694;2023-04-06T04:08:26;18.77;;;10.05;;
77146;SDS011;66121;52.584;9.694;2023-04-06T04:10:52;17.13;;;9.90;;
77146;SDS011;66121;52.584;9.694;2023-04-06T04:13:17;17.53;;;10.70;;
77146;SDS011;66121;52.584;9.694;2023-04-06T04:15:43;19.15;;;10.82;;
77146;SDS011;66121;52.584;9.694;2023-04-06T04:18:09;18.27;;;10.45;;
77146;SDS011;66121;52.584;9.694;2023-04-06T04:20:34;16.50;;;10.10;;
77146;SDS011;66121;52.584;9.694;2023-04-06T04:22:59;17.03;;;10.07;;
77146;SDS011;66121;52.584;9.694;2023-04-06T04:25:24;19.98;;;9.98;;
77146;SDS011;66121;52.584;9.694;2023-04-06T04:27:50;18.88;;;10.40;;
77146;SDS011;66121;52.584;9.694;2023-04-06T04:30:15;21.38;;;9.90;;
77146;SDS011;66121;52.584;9.694;2023-04-06T04:32:41;15.90;;;9.85;;
77146;SDS011;66121;52.584;9.694;2023-04-06T04:35:06;20.77;;;10.17;;
77146;SDS011;66121;52.584;9.694;2023-04-06T04:37:32;17.08;;;9.85;;
77146;SDS011;66121;52.584;9.694;2023-04-06T04:39:59;19.75;;;10.10;;
77146;SDS011;66121;52.584;9.694;2023-04-06T04:42:25;17.65;;;10.40;;
77146;SDS011;66121;52.584;9.694;2023-04-06T04:44:50;14.95;;;9.35;;
77146;SDS011;66121;52.584;9.694;2023-04-06T04:47:15;14.60;;;9.23;;
77146;SDS011;66121;52.584;9.694;2023-04-06T04:49:41;16.13;;;9.67;;
77146;SDS011;66121;52.584;9.694;2023-04-06T04:52:06;16.23;;;9.10;;
77146;SDS011;66121;52.584;9.694;2023-04-06T04:54:31;17.15;;;9.90;;
77146;SDS011;66121;52.584;9.694;2023-04-06T04:56:57;19.00;;;10.00;;
77146;SDS011;66121;52.584;9.694;2023-04-06T04:59:22;15.77;;;9.73;;
77146;SDS011;66121;52.584;9.694;2023-04-06T05:01:47;18.98;;;10.02;;
77146;SDS011;66121;52.584;9.694;2023-04-06T05:04:12;17.40;;;10.10;;
77146;SDS011;66121;52.584;9.694;2023-04-06T05:06:38;17.57;;;10.03;;
77146;SDS011;66121;52.584;9.694;2023-04-06T05:09:03;16.47;;;8.97;;
77146;SDS011;66121;52.584;9.694;2023-04-06T05:11:28;17.93;;;10.60;;
77146;SDS011;66121;52.584;9.694;2023-04-06T05:13:54;17.85;;;9.73;;
77146;SDS011;66121;52.584;9.694;2023-04-06T05:16:21;16.23;;;9.02;;
77146;SDS011;66121;52.584;9.694;2023-04-06T05:18:47;14.97;;;8.70;;
77146;SDS011;66121;52.584;9.694;2023-04-06T05:21:12;16.05;;;9.43;;
77146;SDS011;66121;52.584;9.694;2023-04-06T05:23:38;18.65;;;9.23;;
77146;SDS011;66121;52.584;9.694;2023-04-06T05:26:03;16.25;;;8.73;;
77146;SDS011;66121;52.584;9.694;2023-04-06T05:28:29;18.02;;;9.65;;
77146;SDS011;66121;52.584;9.694;2023-04-06T05:30:55;15.25;;;8.93;;
77146;SDS011;66121;52.584;9.694;2023-04-06T05:33:21;14.18;;;8.75;;
77146;SDS011;66121;52.584;9.694;2023-04-06T05:35:47;14.88;;;8.57;;
77146;SDS011;66121;52.584;9.694;2023-04-06T05:38:15;15.88;;;9.23;;
77146;SDS011;66121;52.584;9.694;2023-04-06T05:40:40;13.30;;;8.17;;
77146;SDS011;66121;52.584;9.694;2023-04-06T05:43:06;16.73;;;9.10;;
77146;SDS011;66121;52.584;9.694;2023-04-06T05:45:33;19.13;;;9.93;;
77146;SDS011;66121;52.584;9.694;2023-04-06T05:47:58;18.50;;;10.80;;
77146;SDS011;66121;52.584;9.694;2023-04-06T05:50:23;17.23;;;9.80;;
77146;SDS011;66121;52.584;9.694;2023-04-06T05:52:49;16.38;;;9.40;;
77146;SDS011;66121;52.584;9.694;2023-04-06T05:55:14;16.35;;;9.48;;
77146;SDS011;66121;52.584;9.694;2023-04-06T05:57:40;15.45;;;9.80;;
77146;SDS011;66121;52.584;9.694;2023-04-06T06:00:06;14.10;;;8.90;;
77146;SDS011;66121;52.584;9.694;2023-04-06T06:02:34;17.67;;;10.48;;
77146;SDS011;66121;52.584;9.694;2023-04-06T06:04:59;18.15;;;9.32;;
77146;SDS011;66121;52.584;9.694;2023-04-06T06:07:25;19.65;;;9.98;;
77146;SDS011;66121;52.584;9.694;2023-04-06T06:09:50;16.07;;;10.27;;
77146;SDS011;66121;52.584;9.694;2023-04-06T06:12:15;17.50;;;9.00;;
77146;SDS011;66121;52.584;9.694;2023-04-06T06:14:40;18.10;;;9.77;;
77146;SDS011;66121;52.584;9.694;2023-04-06T06:17:06;16.53;;;9.60;;
77146;SDS011;66121;52.584;9.694;2023-04-06T06:19:31;15.43;;;9.73;;
77146;SDS011;66121;52.584;9.694;2023-04-06T06:21:57;16.17;;;9.18;;
77146;SDS011;66121;52.584;9.694;2023-04-06T06:24:23;18.60;;;8.88;;
77146;SDS011;66121;52.584;9.694;2023-04-06T06:26:48;14.40;;;8.67;;
77146;SDS011;66121;52.584;9.694;2023-04-06T06:29:14;15.77;;;7.82;;
77146;SDS011;66121;52.584;9.694;2023-04-06T06:31:39;16.27;;;7.80;;
77146;SDS011;66121;52.584;9.694;2023-04-06T06:34:05;14.65;;;7.95;;
77146;SDS011;66121;52.584;9.694;2023-04-06T06:36:31;17.80;;;7.60;;
77146;SDS011;66121;52.584;9.694;2023-04-06T06:38:57;16.85;;;8.65;;
77146;SDS011;66121;52.584;9.694;2023-04-06T06:41:23;12.00;;;8.05;;
77146;SDS011;66121;52.584;9.694;2023-04-06T06:43:49;13.15;;;8.00;;
77146;SDS011;66121;52.584;9.694;2023-04-06T06:46:14;13.93;;;7.40;;
77146;SDS011;66121;52.584;9.694;2023-04-06T06:48:40;15.85;;;8.60;;
77146;SDS011;66121;52.584;9.694;2023-04-06T06:51:05;14.68;;;7.93;;
77146;SDS011;66121;52.584;9.694;2023-04-06T06:53:31;13.52;;;7.40;;
77146;SDS011;66121;52.584;9.694;2023-04-06T06:55:56;16.40;;;8.57;;
77146;SDS011;66121;52.584;9.694;2023-04-06T06:58:21;14.87;;;7.93;;
77146;SDS011;66121;52.584;9.694;2023-04-06T07:00:47;13.35;;;7.40;;
77146;SDS011;66121;52.584;9.694;2023-04-06T07:03:12;20.20;;;8.18;;
77146;SDS011;66121;52.584;9.694;2023-04-06T07:05:38;10.45;;;6.80;;
77146;SDS011;66121;52.584;9.694;2023-04-06T07:08:03;16.77;;;8.15;;
77146;SDS011;66121;52.584;9.694;2023-04-06T07:10:29;15.02;;;8.02;;
77146;SDS011;66121;52.584;9.694;2023-04-06T07:12:54;10.88;;;7.13;;
77146;SDS011;66121;52.584;9.694;2023-04-06T07:15:20;17.40;;;8.02;;
77146;SDS011;66121;52.584;9.694;2023-04-06T07:17:45;10.73;;;8.20;;
77146;SDS011;66121;52.584;9.694;2023-04-06T07:20:11;11.23;;;6.35;;
77146;SDS011;66121;52.584;9.694;2023-04-06T07:22:38;10.95;;;7.25;;
77146;SDS011;66121;52.584;9.694;2023-04-06T07:25:03;11.05;;;6.15;;
77146;SDS011;66121;52.584;9.694;2023-04-06T07:27:29;13.82;;;7.30;;
77146;SDS011;66121;52.584;9.694;2023-04-06T07:29:54;10.45;;;6.40;;
77146;SDS011;66121;52.584;9.694;2023-04-06T07:32:20;9.43;;;6.63;;
77146;SDS011;66121;52.584;9.694;2023-04-06T07:34:45;14.40;;;6.82;;
77146;SDS011;66121;52.584;9.694;2023-04-06T07:37:11;15.05;;;6.88;;
77146;SDS011;66121;52.584;9.694;2023-04-06T07:39:37;11.73;;;7.30;;
77146;SDS011;66121;52.584;9.694;2023-04-06T07:42:02;9.27;;;6.03;;
77146;SDS011;66121;52.584;9.694;2023-04-06T07:44:28;8.95;;;5.85;;
77146;SDS011;66121;52.584;9.694;2023-04-06T07:46:53;8.30;;;6.47;;
77146;SDS011;66121;52.584;9.694;2023-04-06T07:49:18;10.70;;;5.97;;
77146;SDS011;66121;52.584;9.694;2023-04-06T07:51:45;8.60;;;6.07;;
77146;SDS011;66121;52.584;9.694;2023-04-06T07:54:11;8.65;;;5.25;;
77146;SDS011;66121;52.584;9.694;2023-04-06T07:56:36;10.73;;;6.32;;
77146;SDS011;66121;52.584;9.694;2023-04-06T07:59:01;10.45;;;5.85;;
77146;SDS011;66121;52.584;9.694;2023-04-06T08:01:28;9.25;;;5.95;;
77146;SDS011;66121;52.584;9.694;2023-04-06T08:03:55;9.65;;;6.10;;
77146;SDS011;66121;52.584;9.694;2023-04-06T08:06:20;10.43;;;6.10;;
77146;SDS011;66121;52.584;9.694;2023-04-06T08:08:46;8.95;;;5.63;;
77146;SDS011;66121;52.584;9.694;2023-04-06T08:11:11;12.13;;;5.97;;
77146;SDS011;66121;52.584;9.694;2023-04-06T08:13:36;11.43;;;5.93;;
77146;SDS011;66121;52.584;9.694;2023-04-06T08:16:02;9.35;;;6.25;;
77146;SDS011;66121;52.584;9.694;2023-04-06T08:18:27;12.35;;;6.47;;
77146;SDS011;66121;52.584;9.694;2023-04-06T08:20:54;7.07;;;5.45;;
77146;SDS011;66121;52.584;9.694;2023-04-06T08:23:19;9.20;;;5.90;;
77146;SDS011;66121;52.584;9.694;2023-04-06T08:25:44;11.02;;;5.60;;
77146;SDS011;66121;52.584;9.694;2023-04-06T08:28:10;8.43;;;5.68;;
77146;SDS011;66121;52.584;9.694;2023-04-06T08:30:36;11.05;;;6.10;;
77146;SDS011;66121;52.584;9.694;2023-04-06T08:33:02;9.30;;;5.70;;
77146;SDS011;66121;52.584;9.694;2023-04-06T08:35:27;12.80;;;6.07;;
77146;SDS011;66121;52.584;9.694;2023-04-06T08:37:53;9.48;;;6.35;;
77146;SDS011;66121;52.584;9.694;2023-04-06T08:40:18;10.52;;;5.88;;
77146;SDS011;66121;52.584;9.694;2023-04-06T08:42:44;11.23;;;7.05;;
77146;SDS011;66121;52.584;9.694;2023-04-06T08:45:16;11.05;;;6.10;;
77146;SDS011;66121;52.584;9.694;2023-04-06T08:47:42;8.90;;;5.57;;
77146;SDS011;66121;52.584;9.694;2023-04-06T08:50:08;14.27;;;5.97;;
77146;SDS011;66121;52.584;9.694;2023-04-06T08:52:36;8.23;;;6.15;;
77146;SDS011;66121;52.584;9.694;2023-04-06T08:55:03;9.48;;;5.85;;
77146;SDS011;66121;52.584;9.694;2023-04-06T08:57:28;10.10;;;5.55;;
77146;SDS011;66121;52.584;9.694;2023-04-06T08:59:54;11.02;;;5.40;;
77146;SDS011;66121;52.584;9.694;2023-04-06T09:02:21;9.15;;;6.45;;
77146;SDS011;66121;52.584;9.694;2023-04-06T09:04:47;8.45;;;6.03;;
77146;SDS011;66121;52.584;9.694;2023-04-06T09:07:14;13.07;;;5.65;;
77146;SDS011;66121;52.584;9.694;2023-04-06T09:09:40;11.75;;;6.35;;
77146;SDS011;66121;52.584;9.694;2023-04-06T09:12:21;10.30;;;6.28;;
77146;SDS011;66121;52.584;9.694;2023-04-06T09:14:50;9.25;;;6.35;;
77146;SDS011;66121;52.584;9.694;2023-04-06T09:17:19;10.27;;;6.15;;
77146;SDS011;66121;52.584;9.694;2023-04-06T09:19:46;10.75;;;6.57;;
77146;SDS011;66121;52.584;9.694;2023-04-06T09:22:12;10.52;;;6.68;;
77146;SDS011;66121;52.584;9.694;2023-04-06T09:24:51;11.45;;;6.00;;
77146;SDS011;66121;52.584;9.694;2023-04-06T09:27:17;9.65;;;7.00;;
77146;SDS011;66121;52.584;9.694;2023-04-06T09:30:02;9.35;;;5.63;;
77146;SDS011;66121;52.584;9.694;2023-04-06T09:32:32;10.20;;;6.15;;
77146;SDS011;66121;52.584;9.694;2023-04-06T09:35:08;10.05;;;6.00;;
77146;SDS011;66121;52.584;9.694;2023-04-06T09:37:34;9.18;;;6.05;;
77146;SDS011;66121;52.584;9.694;2023-04-06T09:40:06;8.98;;;6.10;;
77146;SDS011;66121;52.584;9.694;2023-04-06T09:42:32;10.15;;;6.57;;
77146;SDS011;66121;52.584;9.694;2023-04-06T09:44:58;9.95;;;6.28;;
77146;SDS011;66121;52.584;9.694;2023-04-06T09:47:23;10.55;;;6.28;;
77146;SDS011;66121;52.584;9.694;2023-04-06T09:49:51;9.05;;;6.43;;
77146;SDS011;66121;52.584;9.694;2023-04-06T09:52:21;13.65;;;6.88;;
77146;SDS011;66121;52.584;9.694;2023-04-06T09:54:50;12.30;;;8.00;;
77146;SDS011;66121;52.584;9.694;2023-04-06T10:07:58;12.63;;;7.25;;
77146;SDS011;66121;52.584;9.694;2023-04-06T10:10:28;10.90;;;6.88;;
77146;SDS011;66121;52.584;9.694;2023-04-06T10:12:53;12.85;;;6.95;;
77146;SDS011;66121;52.584;9.694;2023-04-06T10:15:20;10.90;;;6.72;;
77146;SDS011;66121;52.584;9.694;2023-04-06T10:17:46;9.45;;;6.35;;
77146;SDS011;66121;52.584;9.694;2023-04-06T10:20:21;11.60;;;7.20;;
77146;SDS011;66121;52.584;9.694;2023-04-06T10:22:55;9.68;;;6.40;;
77146;SDS011;66121;52.584;9.694;2023-04-06T10:25:28;10.07;;;6.68;;
77146;SDS011;66121;52.584;9.694;2023-04-06T10:28:07;9.27;;;6.30;;
77146;SDS011;66121;52.584;9.694;2023-04-06T10:30:34;10.63;;;6.75;;
77146;SDS011;66121;52.584;9.694;2023-04-06T10:33:00;13.68;;;7.20;;
77146;SDS011;66121;52.584;9.694;2023-04-06T10:35:38;9.80;;;6.85;;
77146;SDS011;66121;52.584;9.694;2023-04-06T10:38:04;10.80;;;6.85;;
77146;SDS011;66121;52.584;9.694;2023-04-06T10:40:30;11.93;;;6.85;;
77146;SDS011;66121;52.584;9.694;2023-04-06T10:43:09;9.85;;;6.18;;
77146;SDS011;66121;52.584;9.694;2023-04-06T10:45:36;9.35;;;6.82;;
77146;SDS011;66121;52.584;9.694;2023-04-06T10:48:14;9.63;;;6.30;;
77146;SDS011;66121;52.584;9.694;2023-04-06T10:50:42;10.93;;;6.40;;
77146;SDS011;66121;52.584;9.694;2023-04-06T10:53:09;12.80;;;6.78;;
77146;SDS011;66121;52.584;9.694;2023-04-06T10:55:34;10.18;;;6.90;;
77146;SDS011;66121;52.584;9.694;2023-04-06T10:58:07;11.75;;;6.95;;
77146;SDS011;66121;52.584;9.694;2023-04-06T11:00:33;11.50;;;7.38;;
77146;SDS011;66121;52.584;9.694;2023-04-06T11:02:59;10.88;;;6.97;;
77146;SDS011;66121;52.584;9.694;2023-04-06T11:05:25;11.68;;;6.75;;
77146;SDS011;66121;52.584;9.694;2023-04-06T11:07:51;10.43;;;7.03;;
77146;SDS011;66121;52.584;9.694;2023-04-06T11:10:20;10.82;;;6.32;;
77146;SDS011;66121;52.584;9.694;2023-04-06T11:12:55;13.70;;;7.63;;
77146;SDS011;66121;52.584;9.694;2023-04-06T11:15:21;10.85;;;7.18;;
77146;SDS011;66121;52.584;9.694;2023-04-06T11:17:47;11.02;;;7.20;;
77146;SDS011;66121;52.584;9.694;2023-04-06T11:20:14;12.27;;;7.20;;
77146;SDS011;66121;52.584;9.694;2023-04-06T11:22:51;9.80;;;6.25;;
77146;SDS011;66121;52.584;9.694;2023-04-06T11:25:17;14.80;;;6.60;;
77146;SDS011;66121;52.584;9.694;2023-04-06T11:27:43;10.88;;;7.10;;
77146;SDS011;66121;52.584;9.694;2023-04-06T11:30:10;11.55;;;6.75;;
77146;SDS011;66121;52.584;9.694;2023-04-06T11:32:43;9.25;;;6.47;;
77146;SDS011;66121;52.584;9.694;2023-04-06T11:35:25;10.20;;;6.28;;
77146;SDS011;66121;52.584;9.694;2023-04-06T11:37:51;12.23;;;7.00;;
77146;SDS011;66121;52.584;9.694;2023-04-06T11:40:22;10.25;;;6.60;;
77146;SDS011;66121;52.584;9.694;2023-04-06T11:42:52;10.93;;;6.75;;
77146;SDS011;66121;52.584;9.694;2023-04-06T11:45:18;10.27;;;6.55;;
77146;SDS011;66121;52.584;9.694;2023-04-06T11:47:44;10.13;;;6.65;;
77146;SDS011;66121;52.584;9.694;2023-04-06T11:50:10;12.10;;;7.30;;
77146;SDS011;66121;52.584;9.694;2023-04-06T11:52:37;12.07;;;6.22;;
77146;SDS011;66121;52.584;9.694;2023-04-06T11:55:14;10.45;;;6.65;;
77146;SDS011;66121;52.584;9.694;2023-04-06T11:57:41;11.73;;;7.13;;
77146;SDS011;66121;52.584;9.694;2023-04-06T12:00:07;13.20;;;7.30;;
77146;SDS011;66121;52.584;9.694;2023-04-06T12:02:34;11.98;;;7.13;;
77146;SDS011;66121;52.584;9.694;2023-04-06T12:05:01;9.73;;;6.82;;
77146;SDS011;66121;52.584;9.694;2023-04-06T12:07:28;10.60;;;6.47;;
77146;SDS011;66121;52.584;9.694;2023-04-06T12:09:53;10.73;;;6.90;;
77146;SDS011;66121;52.584;9.694;2023-04-06T12:12:19;11.82;;;6.85;;
77146;SDS011;66121;52.584;9.694;2023-04-06T12:14:44;10.02;;;7.13;;
77146;SDS011;66121;52.584;9.694;2023-04-06T12:17:10;11.65;;;7.00;;
77146;SDS011;66121;52.584;9.694;2023-04-06T12:19:35;11.93;;;7.27;;
77146;SDS011;66121;52.584;9.694;2023-04-06T12:22:00;12.20;;;6.60;;
77146;SDS011;66121;52.584;9.694;2023-04-06T12:24:25;14.43;;;6.75;;
77146;SDS011;66121;52.584;9.694;2023-04-06T12:26:52;15.65;;;6.97;;
77146;SDS011;66121;52.584;9.694;2023-04-06T12:29:18;12.10;;;7.57;;
77146;SDS011;66121;52.584;9.694;2023-04-06T12:31:43;12.15;;;6.82;;
77146;SDS011;66121;52.584;9.694;2023-04-06T12:34:10;11.98;;;7.18;;
77146;SDS011;66121;52.584;9.694;2023-04-06T12:36:36;12.77;;;8.38;;
77146;SDS011;66121;52.584;9.694;2023-04-06T12:39:02;14.27;;;8.07;;
77146;SDS011;66121;52.584;9.694;2023-04-06T12:41:28;11.93;;;7.45;;
77146;SDS011;66121;52.584;9.694;2023-04-06T12:43:54;10.82;;;7.00;;
77146;SDS011;66121;52.584;9.694;2023-04-06T12:46:19;11.20;;;7.35;;
77146;SDS011;66121;52.584;9.694;2023-04-06T12:48:45;13.85;;;7.40;;
77146;SDS011;66121;52.584;9.694;2023-04-06T12:51:11;11.55;;;7.18;;
77146;SDS011;66121;52.584;9.694;2023-04-06T12:53:36;14.80;;;8.07;;
77146;SDS011;66121;52.584;9.694;2023-04-06T12:56:02;11.40;;;7.28;;
77146;SDS011;66121;52.584;9.694;2023-04-06T12:58:27;14.25;;;9.15;;
77146;SDS011;66121;52.584;9.694;2023-04-06T13:00:54;12.15;;;7.70;;
77146;SDS011;66121;52.584;9.694;2023-04-06T13:03:21;13.27;;;7.90;;
77146;SDS011;66121;52.584;9.694;2023-04-06T13:05:47;10.98;;;7.53;;
77146;SDS011;66121;52.584;9.694;2023-04-06T13:08:14;12.98;;;7.85;;
77146;SDS011;66121;52.584;9.694;2023-04-06T13:10:43;11.88;;;7.85;;
77146;SDS011;66121;52.584;9.694;2023-04-06T13:13:09;11.45;;;7.13;;
77146;SDS011;66121;52.584;9.694;2023-04-06T13:15:34;12.02;;;7.55;;
77146;SDS011;66121;52.584;9.694;2023-04-06T13:18:01;13.13;;;7.93;;
77146;SDS011;66121;52.584;9.694;2023-04-06T13:20:26;11.85;;;7.80;;
77146;SDS011;66121;52.584;9.694;2023-04-06T13:22:52;13.30;;;7.57;;
77146;SDS011;66121;52.584;9.694;2023-04-06T13:25:18;11.20;;;7.20;;
77146;SDS011;66121;52.584;9.694;2023-04-06T13:27:43;13.55;;;7.70;;
77146;SDS011;66121;52.584;9.694;2023-04-06T13:30:11;13.48;;;7.78;;
77146;SDS011;66121;52.584;9.694;2023-04-06T13:32:37;11.38;;;7.53;;
77146;SDS011;66121;52.584;9.694;2023-04-06T13:35:02;12.05;;;7.90;;
77146;SDS011;66121;52.584;9.694;2023-04-06T13:37:28;13.73;;;8.80;;
77146;SDS011;66121;52.584;9.694;2023-04-06T13:39:54;13.20;;;9.00;;
77146;SDS011;66121;52.584;9.694;2023-04-06T13:42:19;12.48;;;7.65;;
77146;SDS011;66121;52.584;9.694;2023-04-06T13:44:45;12.90;;;7.90;;
77146;SDS011;66121;52.584;9.694;2023-04-06T13:47:11;12.73;;;7.63;;
77146;SDS011;66121;52.584;9.694;2023-04-06T13:49:37;10.30;;;7.20;;
77146;SDS011;66121;52.584;9.694;2023-04-06T13:52:02;12.60;;;7.47;;
77146;SDS011;66121;52.584;9.694;2023-04-06T13:54:28;11.50;;;7.35;;
77146;SDS011;66121;52.584;9.694;2023-04-06T13:56:53;11.25;;;7.97;;
77146;SDS011;66121;52.584;9.694;2023-04-06T13:59:19;14.20;;;7.75;;
77146;SDS011;66121;52.584;9.694;2023-04-06T14:01:45;14.25;;;7.28;;
77146;SDS011;66121;52.584;9.694;2023-04-06T14:04:10;10.87;;;6.97;;
77146;SDS011;66121;52.584;9.694;2023-04-06T14:06:36;11.07;;;7.10;;
77146;SDS011;66121;52.584;9.694;2023-04-06T14:09:02;10.70;;;7.07;;
77146;SDS011;66121;52.584;9.694;2023-04-06T14:11:27;10.63;;;7.07;;
77146;SDS011;66121;52.584;9.694;2023-04-06T14:13:53;11.52;;;7.13;;
77146;SDS011;66121;52.584;9.694;2023-04-06T14:16:18;11.17;;;7.60;;
77146;SDS011;66121;52.584;9.694;2023-04-06T14:18:44;11.93;;;7.78;;
77146;SDS011;66121;52.584;9.694;2023-04-06T14:21:10;13.13;;;8.13;;
77146;SDS011;66121;52.584;9.694;2023-04-06T14:23:35;11.32;;;7.32;;
77146;SDS011;66121;52.584;9.694;2023-04-06T14:26:05;13.10;;;7.85;;
77146;SDS011;66121;52.584;9.694;2023-04-06T14:28:32;12.60;;;7.40;;
77146;SDS011;66121;52.584;9.694;2023-04-06T14:30:59;9.52;;;6.55;;
77146;SDS011;66121;52.584;9.694;2023-04-06T14:33:25;11.70;;;7.75;;
77146;SDS011;66121;52.584;9.694;2023-04-06T14:35:55;11.18;;;7.65;;